createdAt,value
2023-05-14T00:01:02.640Z,88.28
2023-05-14T00:03:29.140Z,87.61
2023-05-14T00:05:55.571Z,87.21
2023-05-14T00:08:22.014Z,87.55
2023-05-14T00:10:48.418Z,88.34
2023-05-14T00:13:14.812Z,87.76
2023-05-14T00:15:41.376Z,87.99
2023-05-14T00:18:07.993Z,87.26
2023-05-14T00:20:34.477Z,87.13
2023-05-14T00:23:00.955Z,87.43
2023-05-14T00:25:27.516Z,86.82
2023-05-14T00:27:53.942Z,88.95
2023-05-14T00:30:20.492Z,88.96
2023-05-14T00:32:46.952Z,88.33
2023-05-14T00:35:13.408Z,88.35
2023-05-14T00:37:39.914Z,88.13
2023-05-14T00:40:08.507Z,88.81
2023-05-14T00:42:35.026Z,89.79
2023-05-14T00:45:01.471Z,89.85
2023-05-14T00:47:28.021Z,89.18
2023-05-14T00:49:54.511Z,88.82
2023-05-14T00:52:22.008Z,88.99
2023-05-14T00:54:49.096Z,89.37
2023-05-14T00:57:15.575Z,89.39
2023-05-14T00:59:42.687Z,90.30
2023-05-14T01:02:09.193Z,90.51
2023-05-14T01:04:35.655Z,90.20
2023-05-14T01:07:20.873Z,89.48
2023-05-14T01:10:02.727Z,90.19
2023-05-14T01:12:48.627Z,90.80
2023-05-14T01:15:30.821Z,90.70
2023-05-14T01:18:05.592Z,91.12
2023-05-14T01:20:32.079Z,90.20
2023-05-14T01:22:58.575Z,89.22
2023-05-14T01:25:25.909Z,88.50
2023-05-14T01:27:52.197Z,89.24
2023-05-14T01:30:37.832Z,89.07
2023-05-14T01:33:10.554Z,89.97
2023-05-14T01:35:37.292Z,90.67
2023-05-14T01:38:05.131Z,90.11
2023-05-14T01:40:32.339Z,90.15
2023-05-14T01:42:58.885Z,89.88
2023-05-14T01:45:25.388Z,91.02
2023-05-14T01:47:51.992Z,90.62
2023-05-14T01:50:18.656Z,90.86
2023-05-14T01:52:45.456Z,90.01
2023-05-14T01:55:11.928Z,89.49
2023-05-14T01:57:38.347Z,89.48
2023-05-14T02:00:05.593Z,90.35
2023-05-14T02:02:32.045Z,90.34
2023-05-14T02:04:58.484Z,90.45
2023-05-14T02:07:24.943Z,90.45
2023-05-14T02:09:51.358Z,91.04
2023-05-14T02:12:17.726Z,91.45
2023-05-14T02:14:44.141Z,90.40
2023-05-14T02:17:10.581Z,90.16
2023-05-14T02:19:36.991Z,90.36
2023-05-14T02:22:03.488Z,90.17
2023-05-14T02:24:29.978Z,90.56
2023-05-14T02:26:56.372Z,91.27
2023-05-14T02:29:22.799Z,91.66
2023-05-14T02:31:49.345Z,90.94
2023-05-14T02:34:16.228Z,91.44
2023-05-14T02:36:42.660Z,91.66
2023-05-14T02:39:09.126Z,91.65
2023-05-14T02:41:35.716Z,92.15
2023-05-14T02:44:02.199Z,91.98
2023-05-14T02:46:28.717Z,91.62
2023-05-14T02:48:55.202Z,92.30
2023-05-14T02:51:21.833Z,91.82
2023-05-14T02:53:48.504Z,92.46
2023-05-14T02:56:14.953Z,92.88
2023-05-14T02:58:41.536Z,91.75
2023-05-14T03:01:08.596Z,92.34
2023-05-14T03:03:35.687Z,93.00
2023-05-14T03:06:02.382Z,91.81
2023-05-14T03:08:28.832Z,90.88
2023-05-14T03:10:55.391Z,89.97
2023-05-14T03:13:21.817Z,91.23
2023-05-14T03:15:48.504Z,91.72
2023-05-14T03:18:15.066Z,92.37
2023-05-14T03:20:41.920Z,92.72
2023-05-14T03:23:08.346Z,93.23
2023-05-14T03:25:34.768Z,92.24
2023-05-14T03:28:01.247Z,92.70
2023-05-14T03:30:27.718Z,91.96
2023-05-14T03:32:54.326Z,93.35
2023-05-14T03:35:21.018Z,93.72
2023-05-14T03:37:48.245Z,93.53
2023-05-14T03:40:14.708Z,93.71
2023-05-14T03:42:41.116Z,92.65
2023-05-14T03:45:08.238Z,93.76
2023-05-14T03:47:34.696Z,93.17
2023-05-14T03:50:01.183Z,93.38
2023-05-14T03:52:27.572Z,92.48
2023-05-14T03:54:53.975Z,92.49
2023-05-14T03:57:21.019Z,92.21
2023-05-14T03:59:47.429Z,92.41
2023-05-14T04:02:13.882Z,91.82
2023-05-14T04:04:41.023Z,91.81
2023-05-14T04:07:08.486Z,91.87
2023-05-14T04:09:34.895Z,92.83
2023-05-14T04:12:01.326Z,92.23
2023-05-14T04:14:27.717Z,93.24
2023-05-14T04:16:54.136Z,93.77
2023-05-14T04:19:20.692Z,92.21
2023-05-14T04:21:47.142Z,88.95
2023-05-14T04:24:13.554Z,89.19
2023-05-14T04:26:40.013Z,90.99
2023-05-14T04:29:06.464Z,87.22
2023-05-14T04:31:33.191Z,82.64
2023-05-14T04:33:59.677Z,79.22
2023-05-14T04:36:26.239Z,76.01
2023-05-14T04:38:52.704Z,74.32
2023-05-14T04:41:19.192Z,74.83
2023-05-14T04:43:46.986Z,73.75
2023-05-14T04:46:13.866Z,73.18
2023-05-14T04:48:40.363Z,72.60
2023-05-14T04:51:07.262Z,73.28
2023-05-14T04:53:33.799Z,74.09
2023-05-14T04:56:00.260Z,75.75
2023-05-14T04:58:28.830Z,76.58
2023-05-14T05:00:55.291Z,78.65
2023-05-14T05:03:22.123Z,80.03
2023-05-14T05:05:48.596Z,78.90
2023-05-14T05:08:15.069Z,78.25
2023-05-14T05:10:41.488Z,77.99
2023-05-14T05:13:07.869Z,77.23
2023-05-14T05:15:34.255Z,77.24
2023-05-14T05:18:00.793Z,79.16
2023-05-14T05:20:28.211Z,80.60
2023-05-14T05:22:54.782Z,80.18
2023-05-14T05:25:21.431Z,78.13
2023-05-14T05:27:47.877Z,77.75
2023-05-14T05:30:14.318Z,76.11
2023-05-14T05:32:40.929Z,77.26
2023-05-14T05:35:07.664Z,75.67
2023-05-14T05:37:34.194Z,77.53
2023-05-14T05:40:00.643Z,78.64
2023-05-14T05:42:27.136Z,77.89
2023-05-14T05:44:53.546Z,77.58
2023-05-14T05:47:20.025Z,75.93
2023-05-14T05:49:46.486Z,75.59
2023-05-14T05:52:13.203Z,75.18
2023-05-14T05:54:39.846Z,75.32
2023-05-14T05:57:06.263Z,74.03
2023-05-14T05:59:32.806Z,73.04
2023-05-14T06:01:59.269Z,71.82
2023-05-14T06:04:25.689Z,72.08
2023-05-14T06:06:52.061Z,73.94
2023-05-14T06:09:18.674Z,73.82
2023-05-14T06:11:45.114Z,71.77
2023-05-14T06:14:11.621Z,71.18
2023-05-14T06:16:38.174Z,69.96
2023-05-14T06:19:04.787Z,70.21
2023-05-14T06:21:31.343Z,69.05
2023-05-14T06:23:57.800Z,69.14
2023-05-14T06:26:24.198Z,66.99
2023-05-14T06:28:50.605Z,66.65
2023-05-14T06:31:18.132Z,66.67
2023-05-14T06:33:45.134Z,66.82
2023-05-14T06:36:11.686Z,66.38
2023-05-14T06:38:38.134Z,68.28
2023-05-14T06:41:04.840Z,69.51
2023-05-14T06:43:31.288Z,68.73
2023-05-14T06:45:57.814Z,68.08
2023-05-14T06:48:24.403Z,68.84
2023-05-14T06:50:50.905Z,66.79
2023-05-14T06:53:17.438Z,65.72
2023-05-14T06:55:43.868Z,65.19
2023-05-14T06:58:10.353Z,63.88
2023-05-14T07:00:36.794Z,63.67
2023-05-14T07:03:03.352Z,63.26
2023-05-14T07:05:29.898Z,62.17
2023-05-14T07:07:56.378Z,62.09
2023-05-14T07:10:23.162Z,61.38
2023-05-14T07:12:49.886Z,61.44
2023-05-14T07:15:16.622Z,60.17
2023-05-14T07:17:43.105Z,60.23
2023-05-14T07:20:10.011Z,60.18
2023-05-14T07:22:36.474Z,58.66
2023-05-14T07:25:03.143Z,59.99
2023-05-14T07:27:29.596Z,60.39
2023-05-14T07:29:56.082Z,59.90
2023-05-14T07:32:22.530Z,59.35
2023-05-14T07:34:49.006Z,60.61
2023-05-14T07:37:15.453Z,59.70
2023-05-14T07:39:41.951Z,59.89
2023-05-14T07:42:08.424Z,58.80
2023-05-14T07:44:34.891Z,59.59
2023-05-14T07:47:01.368Z,56.86
2023-05-14T07:49:27.817Z,56.96
2023-05-14T07:51:54.271Z,55.54
2023-05-14T07:54:20.799Z,56.79
2023-05-14T07:56:47.213Z,56.29
2023-05-14T07:59:13.773Z,57.25
2023-05-14T08:01:40.543Z,55.57
2023-05-14T08:04:07.033Z,55.79
2023-05-14T08:06:34.104Z,55.52
2023-05-14T08:09:00.635Z,54.36
2023-05-14T08:11:27.058Z,55.30
2023-05-14T08:13:53.508Z,54.94
2023-05-14T08:16:19.981Z,55.26
2023-05-14T08:18:46.448Z,56.48
2023-05-14T08:21:12.926Z,55.09
2023-05-14T08:23:39.347Z,56.00
2023-05-14T08:26:06.044Z,54.80
2023-05-14T08:28:32.550Z,55.07
2023-05-14T08:30:58.989Z,55.26
2023-05-14T08:33:25.450Z,54.83
2023-05-14T08:35:53.246Z,54.68
2023-05-14T08:38:19.685Z,55.38
2023-05-14T08:40:56.389Z,55.79
2023-05-14T08:43:26.437Z,56.91
2023-05-14T08:45:58.126Z,55.36
2023-05-14T08:48:27.022Z,54.13
2023-05-14T08:50:53.612Z,55.06
2023-05-14T08:53:20.339Z,55.21
2023-05-14T08:55:48.057Z,56.99
2023-05-14T08:58:14.531Z,54.85
2023-05-14T09:00:41.108Z,55.99
2023-05-14T09:03:07.831Z,57.57
2023-05-14T09:05:34.471Z,56.70
2023-05-14T09:08:00.954Z,58.27
2023-05-14T09:10:27.517Z,58.25
2023-05-14T09:12:54.320Z,54.37
2023-05-14T09:15:21.078Z,54.18
2023-05-14T09:17:48.568Z,54.76
2023-05-14T09:20:15.278Z,52.31
2023-05-14T09:22:42.048Z,53.48
2023-05-14T09:25:11.917Z,53.60
2023-05-14T09:27:38.870Z,54.15
2023-05-14T09:30:10.682Z,54.27
2023-05-14T09:32:44.250Z,52.83
2023-05-14T09:35:17.042Z,51.82
2023-05-14T09:37:53.632Z,49.67
2023-05-14T09:40:21.701Z,48.89
2023-05-14T09:42:49.311Z,50.13
2023-05-14T09:45:16.465Z,50.35
2023-05-14T09:47:43.180Z,49.23
2023-05-14T09:50:10.003Z,47.31
2023-05-14T09:52:37.291Z,49.13
2023-05-14T09:55:04.175Z,48.75
2023-05-14T09:57:30.886Z,48.80
2023-05-14T09:59:57.326Z,49.71
2023-05-14T10:02:25.089Z,50.16
2023-05-14T10:04:54.405Z,48.46
2023-05-14T10:07:27.423Z,47.28
2023-05-14T10:09:59.315Z,47.44
2023-05-14T10:12:28.910Z,45.61
2023-05-14T10:14:57.677Z,46.90
2023-05-14T10:17:26.404Z,47.57
2023-05-14T10:19:54.740Z,45.81
2023-05-14T10:22:27.489Z,46.51
2023-05-14T10:24:54.428Z,46.09
2023-05-14T10:27:21.560Z,45.90
2023-05-14T10:29:55.447Z,45.37
2023-05-14T10:32:25.102Z,45.98
2023-05-14T10:34:52.634Z,46.49
2023-05-14T10:37:21.715Z,46.05
2023-05-14T10:39:54.033Z,45.15
2023-05-14T10:42:23.112Z,44.79
2023-05-14T10:45:06.357Z,43.70
2023-05-14T10:47:33.964Z,44.71
2023-05-14T10:50:03.765Z,44.22
2023-05-14T10:52:30.972Z,44.76
2023-05-14T10:55:02.658Z,43.12
2023-05-14T10:57:31.828Z,43.12
2023-05-14T11:00:00.356Z,42.75
2023-05-14T11:02:28.916Z,45.36
2023-05-14T11:04:56.402Z,44.43
2023-05-14T11:07:28.595Z,45.01
2023-05-14T11:10:03.436Z,46.10
2023-05-14T11:12:30.257Z,45.81
2023-05-14T11:14:58.203Z,44.66
2023-05-14T11:17:29.003Z,44.21
2023-05-14T11:19:56.041Z,41.73
2023-05-14T11:22:22.777Z,44.20
2023-05-14T11:24:49.544Z,44.62
2023-05-14T11:27:17.295Z,43.53
2023-05-14T11:29:47.745Z,42.90
2023-05-14T11:32:15.348Z,43.97
2023-05-14T11:34:42.845Z,43.73
2023-05-14T11:37:10.409Z,44.52
2023-05-14T11:39:39.672Z,43.53
2023-05-14T11:42:11.873Z,44.24
2023-05-14T11:44:38.855Z,42.74
2023-05-14T11:47:06.354Z,42.78
2023-05-14T11:49:35.480Z,42.70
2023-05-14T11:52:03.494Z,43.79
2023-05-14T11:54:30.492Z,43.82
2023-05-14T11:56:58.005Z,44.47
2023-05-14T11:59:25.753Z,44.35
2023-05-14T12:01:55.181Z,44.47
2023-05-14T12:04:22.944Z,44.79
2023-05-14T12:06:50.362Z,45.30
2023-05-14T12:09:18.072Z,44.46
2023-05-14T12:11:46.716Z,46.40
2023-05-14T12:14:17.937Z,46.93
2023-05-14T12:16:45.149Z,45.05
2023-05-14T12:19:12.593Z,46.08
2023-05-14T12:21:39.472Z,47.36
2023-05-14T12:24:10.658Z,46.78
2023-05-14T12:26:38.745Z,47.35
2023-05-14T12:29:06.933Z,46.31
2023-05-14T12:31:36.575Z,46.32
2023-05-14T12:34:04.212Z,45.83
2023-05-14T12:36:32.589Z,49.09
2023-05-14T12:39:03.643Z,45.37
2023-05-14T12:41:30.879Z,41.92
2023-05-14T12:46:23.785Z,42.16
2023-05-14T12:48:52.353Z,43.27
2023-05-14T12:51:19.777Z,44.33
2023-05-14T12:53:46.214Z,45.25
2023-05-14T12:56:13.825Z,44.47
2023-05-14T12:58:40.313Z,45.28
2023-05-14T13:01:06.847Z,44.63
2023-05-14T13:03:33.363Z,47.06
2023-05-14T13:05:59.804Z,53.12
2023-05-14T13:08:26.255Z,56.01
2023-05-14T13:10:53.900Z,54.62
2023-05-14T13:13:20.299Z,56.19
2023-05-14T13:15:46.897Z,56.48
2023-05-14T13:18:14.155Z,55.92
2023-05-14T13:20:43.241Z,51.89
2023-05-14T13:23:09.846Z,50.11
2023-05-14T13:25:36.317Z,52.28
2023-05-14T13:28:02.826Z,51.81
2023-05-14T13:30:29.741Z,50.20
2023-05-14T13:32:56.210Z,52.09
2023-05-14T13:35:22.771Z,56.68
2023-05-14T13:37:49.398Z,57.18
2023-05-14T13:40:15.803Z,56.20
2023-05-14T13:42:42.320Z,58.18
2023-05-14T13:45:09.121Z,60.21
2023-05-14T13:47:35.944Z,56.51
2023-05-14T13:50:02.369Z,61.51
2023-05-14T13:52:28.845Z,60.26
2023-05-14T13:54:56.767Z,59.97
2023-05-14T13:57:23.324Z,54.09
2023-05-14T13:59:49.804Z,56.02
2023-05-14T14:02:16.282Z,55.72
2023-05-14T14:04:42.899Z,52.73
2023-05-14T14:07:09.442Z,52.77
2023-05-14T14:09:36.869Z,52.55
2023-05-14T14:12:04.517Z,50.01
2023-05-14T14:14:31.256Z,47.93
2023-05-14T14:16:57.726Z,53.60
2023-05-14T14:19:24.126Z,50.17
2023-05-14T14:24:22.026Z,50.49
2023-05-14T14:26:48.434Z,50.96
2023-05-14T14:29:14.880Z,48.80
2023-05-14T14:31:41.364Z,48.10
2023-05-14T14:34:07.810Z,51.46
2023-05-14T14:36:34.242Z,49.48
2023-05-14T14:39:00.678Z,50.81
2023-05-14T14:41:27.334Z,49.53
2023-05-14T14:43:53.839Z,50.18
2023-05-14T14:46:20.332Z,45.78
2023-05-14T14:48:46.788Z,46.78
2023-05-14T14:51:13.365Z,47.48
2023-05-14T14:53:40.478Z,47.22
2023-05-14T14:56:07.077Z,45.17
2023-05-14T14:58:33.608Z,50.27
2023-05-14T15:01:01.118Z,43.95
2023-05-14T15:03:27.780Z,41.87
2023-05-14T15:05:54.393Z,44.01
2023-05-14T15:08:25.507Z,44.04
2023-05-14T15:10:52.098Z,42.85
2023-05-14T15:13:18.852Z,44.34
2023-05-14T15:15:45.290Z,43.68
2023-05-14T15:18:11.897Z,43.95
2023-05-14T15:20:41.390Z,44.27
2023-05-14T15:23:07.866Z,43.85
2023-05-14T15:25:34.461Z,43.90
2023-05-14T15:28:00.884Z,43.85
2023-05-14T15:30:27.350Z,42.08
2023-05-14T15:32:53.980Z,43.83
2023-05-14T15:35:20.432Z,45.10
2023-05-14T15:37:46.900Z,45.23
2023-05-14T15:40:13.399Z,45.44
2023-05-14T15:42:44.756Z,43.84
2023-05-14T15:45:13.038Z,45.46
2023-05-14T15:47:40.300Z,44.76
2023-05-14T15:50:07.697Z,45.25
2023-05-14T15:52:35.106Z,47.66
2023-05-14T15:55:01.775Z,46.96
2023-05-14T15:57:28.285Z,47.32
2023-05-14T15:59:54.761Z,47.27
2023-05-14T16:02:21.190Z,45.82
2023-05-14T16:04:49.479Z,45.85
2023-05-14T16:07:16.071Z,47.29
2023-05-14T16:09:42.564Z,49.00
2023-05-14T16:12:09.279Z,44.76
2023-05-14T16:14:38.606Z,47.78
2023-05-14T16:17:06.424Z,45.33
2023-05-14T16:19:32.904Z,45.26
2023-05-14T16:21:59.370Z,45.46
2023-05-14T16:24:25.766Z,45.50
2023-05-14T16:26:52.164Z,46.72
2023-05-14T16:29:18.633Z,49.61
2023-05-14T16:31:45.112Z,51.20
2023-05-14T16:34:11.683Z,54.41
2023-05-14T16:36:38.124Z,57.02
2023-05-14T16:39:07.804Z,55.21
2023-05-14T16:41:35.443Z,57.99
2023-05-14T16:44:01.916Z,60.64
2023-05-14T16:46:29.395Z,68.42
2023-05-14T16:48:56.163Z,69.67
2023-05-14T16:51:22.749Z,71.41
2023-05-14T16:53:49.246Z,72.95
2023-05-14T16:56:15.668Z,70.49
2023-05-14T16:58:42.335Z,73.73
2023-05-14T17:01:09.896Z,73.01
2023-05-14T17:03:36.829Z,73.54
2023-05-14T17:06:04.561Z,75.78
2023-05-14T17:08:33.491Z,71.34
2023-05-14T17:11:00.099Z,72.06
2023-05-14T17:13:26.704Z,75.28
2023-05-14T17:15:53.151Z,74.01
2023-05-14T17:18:19.640Z,75.67
2023-05-14T17:20:46.555Z,77.67
2023-05-14T17:23:13.459Z,80.23
2023-05-14T17:25:39.921Z,79.58
2023-05-14T17:28:06.599Z,81.08
2023-05-14T17:30:33.056Z,80.25
2023-05-14T17:32:59.840Z,82.59
2023-05-14T17:35:26.436Z,82.32
2023-05-14T17:37:52.960Z,83.75
2023-05-14T17:40:19.429Z,85.16
2023-05-14T17:42:46.290Z,85.35
2023-05-14T17:45:13.453Z,80.86
2023-05-14T17:47:40.248Z,81.59
2023-05-14T17:50:07.286Z,80.62
2023-05-14T17:52:33.766Z,78.55
2023-05-14T17:55:00.360Z,78.54
2023-05-14T17:57:27.014Z,78.97
2023-05-14T17:59:53.433Z,78.81
2023-05-14T18:02:19.875Z,79.21
2023-05-14T18:04:46.924Z,78.76
2023-05-14T18:07:13.499Z,79.22
2023-05-14T18:09:39.894Z,76.25
2023-05-14T18:12:06.847Z,76.74
2023-05-14T18:14:33.254Z,75.49
2023-05-14T18:16:59.692Z,75.28
2023-05-14T18:19:26.151Z,76.24
2023-05-14T18:21:55.251Z,74.94
2023-05-14T18:24:22.215Z,74.85
2023-05-14T18:26:48.683Z,74.86
2023-05-14T18:29:15.149Z,74.62
2023-05-14T18:31:41.564Z,74.60
2023-05-14T18:34:08.262Z,75.05
2023-05-14T18:36:34.698Z,76.03
2023-05-14T18:39:01.089Z,75.65
2023-05-14T18:41:27.599Z,76.10
2023-05-14T18:43:54.007Z,74.53
2023-05-14T18:46:20.540Z,74.46
2023-05-14T18:48:46.986Z,73.81
2023-05-14T18:51:13.439Z,74.58
2023-05-14T18:53:39.871Z,73.36
2023-05-14T18:56:06.378Z,75.54
2023-05-14T18:58:32.802Z,74.38
2023-05-14T19:00:59.257Z,74.20
2023-05-14T19:03:26.028Z,75.06
2023-05-14T19:05:53.380Z,75.42
2023-05-14T19:08:19.837Z,74.52
2023-05-14T19:10:46.600Z,74.29
2023-05-14T19:13:13.036Z,75.45
2023-05-14T19:15:39.686Z,76.04
2023-05-14T19:18:06.295Z,75.96
2023-05-14T19:20:32.876Z,75.56
2023-05-14T19:22:59.307Z,75.38
2023-05-14T19:25:26.027Z,74.96
2023-05-14T19:27:53.611Z,74.68
2023-05-14T19:30:20.645Z,75.02
2023-05-14T19:32:47.119Z,75.43
2023-05-14T19:35:13.555Z,74.27
2023-05-14T19:37:39.992Z,75.04
2023-05-14T19:40:06.992Z,76.00
2023-05-14T19:42:33.426Z,75.15
2023-05-14T19:44:59.825Z,76.05
2023-05-14T19:47:27.425Z,75.44
2023-05-14T19:49:53.855Z,75.62
2023-05-14T19:52:20.320Z,76.67
2023-05-14T19:54:46.723Z,77.80
2023-05-14T19:57:13.155Z,80.01
2023-05-14T19:59:40.287Z,81.02
2023-05-14T20:02:07.729Z,80.85
2023-05-14T20:04:34.813Z,78.65
2023-05-14T20:07:01.509Z,77.40
2023-05-14T20:09:27.953Z,76.41
2023-05-14T20:11:54.413Z,75.36
2023-05-14T20:14:20.820Z,75.28
2023-05-14T20:16:48.867Z,74.70
2023-05-14T20:19:16.209Z,73.71
2023-05-14T20:21:42.776Z,74.60
2023-05-14T20:24:09.221Z,75.24
2023-05-14T20:26:35.789Z,72.76
2023-05-14T20:29:02.221Z,74.52
2023-05-14T20:31:29.045Z,74.29
2023-05-14T20:33:55.517Z,73.04
2023-05-14T20:36:22.234Z,74.95
2023-05-14T20:38:48.802Z,74.54
2023-05-14T20:41:15.215Z,75.51
2023-05-14T20:43:41.637Z,75.27
2023-05-14T20:46:08.995Z,75.17
2023-05-14T20:48:35.473Z,75.33
2023-05-14T20:51:04.684Z,74.70
2023-05-14T20:53:31.185Z,74.47
2023-05-14T20:55:58.835Z,76.35
2023-05-14T20:58:25.341Z,75.30
2023-05-14T21:00:51.806Z,74.99
2023-05-14T21:03:18.442Z,73.69
2023-05-14T21:05:44.991Z,73.72
2023-05-14T21:08:11.590Z,73.89
2023-05-14T21:10:38.043Z,72.78
2023-05-14T21:13:04.492Z,73.97
2023-05-14T21:15:31.378Z,74.07
2023-05-14T21:17:57.839Z,74.85
2023-05-14T21:20:24.262Z,74.20
2023-05-14T21:22:50.716Z,74.64
2023-05-14T21:25:17.177Z,73.91
2023-05-14T21:27:43.574Z,73.77
2023-05-14T21:30:10.614Z,73.78
2023-05-14T21:32:37.203Z,73.38
2023-05-14T21:35:03.788Z,74.76
2023-05-14T21:37:30.260Z,75.07
2023-05-14T21:39:56.649Z,74.45
2023-05-14T21:42:23.246Z,75.17
2023-05-14T21:44:49.785Z,74.87
2023-05-14T21:47:16.382Z,75.29
2023-05-14T21:49:43.181Z,75.11
2023-05-14T21:52:09.640Z,75.44
2023-05-14T21:54:36.053Z,76.79
2023-05-14T21:57:02.707Z,76.06
2023-05-14T21:59:29.122Z,77.47
2023-05-14T22:02:06.915Z,78.83
2023-05-14T22:04:35.060Z,79.20
2023-05-14T22:07:01.574Z,80.25
2023-05-14T22:09:28.016Z,79.82
2023-05-14T22:11:54.471Z,79.57
2023-05-14T22:14:20.856Z,79.71
2023-05-14T22:16:47.311Z,79.79
2023-05-14T22:19:16.614Z,79.72
2023-05-14T22:21:43.156Z,80.33
2023-05-14T22:24:09.534Z,80.36
2023-05-14T22:26:35.980Z,80.28
2023-05-14T22:29:02.501Z,80.46
2023-05-14T22:31:29.352Z,78.91
2023-05-14T22:33:55.834Z,79.74
2023-05-14T22:36:22.230Z,80.20
2023-05-14T22:38:48.660Z,77.72
2023-05-14T22:41:17.361Z,78.23
2023-05-14T22:43:43.826Z,79.94
2023-05-14T22:46:10.354Z,79.69
2023-05-14T22:48:36.833Z,80.07
2023-05-14T22:51:03.260Z,79.58
2023-05-14T22:53:29.743Z,80.50
2023-05-14T22:55:56.740Z,80.60
2023-05-14T22:58:23.213Z,80.72
2023-05-14T23:00:49.970Z,80.77
2023-05-14T23:03:16.475Z,80.98
2023-05-14T23:05:43.001Z,81.69
2023-05-14T23:08:09.515Z,81.71
2023-05-14T23:10:35.931Z,81.44
2023-05-14T23:13:04.565Z,82.21
2023-05-14T23:15:31.285Z,82.51
2023-05-14T23:17:57.787Z,82.73
2023-05-14T23:20:24.386Z,83.73
2023-05-14T23:22:50.838Z,84.48
2023-05-14T23:25:17.240Z,85.62
2023-05-14T23:27:43.673Z,85.60
2023-05-14T23:30:10.745Z,86.74
2023-05-14T23:32:37.217Z,85.98
2023-05-14T23:35:03.997Z,86.66
2023-05-14T23:37:30.490Z,86.28
2023-05-14T23:39:56.989Z,87.78
2023-05-14T23:42:24.656Z,86.72
2023-05-14T23:44:51.059Z,87.77
2023-05-14T23:47:17.483Z,88.21
2023-05-14T23:49:43.908Z,87.63
2023-05-14T23:52:11.296Z,88.00
2023-05-14T23:54:38.798Z,86.30
2023-05-14T23:57:05.450Z,87.55
2023-05-14T23:59:34.989Z,86.48
